sensor_id;sensor_type;location;lat;lon;timestamp;pressure;altitude;pressure_sealevel;temperature;humidity
75312;BME280;63906;55.686;37.532;2023-01-24T00:01:42;101715.63;;;-1.41;74.01
75312;BME280;63906;55.686;37.532;2023-01-24T00:06:42;101711.28;;;-1.41;74.50
75312;BME280;63906;55.686;37.532;2023-01-24T00:11:43;101720.41;;;-1.32;73.41
75312;BME280;63906;55.686;37.532;2023-01-24T00:16:43;101718.66;;;-1.31;75.34
75312;BME280;63906;55.686;37.532;2023-01-24T00:21:44;101718.47;;;-1.27;75.89
75312;BME280;63906;55.686;37.532;2023-01-24T00:26:45;101722.50;;;-1.20;75.58
75312;BME280;63906;55.686;37.532;2023-01-24T00:31:45;101728.72;;;-1.24;75.32
75312;BME280;63906;55.686;37.532;2023-01-24T00:36:46;101722.31;;;-1.15;74.60
75312;BME280;63906;55.686;37.532;2023-01-24T00:41:46;101722.81;;;-1.27;75.08
75312;BME280;63906;55.686;37.532;2023-01-24T00:46:51;101724.13;;;-1.39;75.31
75312;BME280;63906;55.686;37.532;2023-01-24T00:51:52;101692.44;;;-1.65;74.53
75312;BME280;63906;55.686;37.532;2023-01-24T00:56:53;101656.13;;;-1.60;75.69
75312;BME280;63906;55.686;37.532;2023-01-24T01:01:53;101691.81;;;-1.49;74.94
75312;BME280;63906;55.686;37.532;2023-01-24T01:06:54;101692.19;;;-1.37;75.75
75312;BME280;63906;55.686;37.532;2023-01-24T01:11:54;101685.97;;;-1.32;75.75
75312;BME280;63906;55.686;37.532;2023-01-24T01:16:55;101682.22;;;-1.46;75.31
75312;BME280;63906;55.686;37.532;2023-01-24T01:21:56;101668.25;;;-1.62;74.40
75312;BME280;63906;55.686;37.532;2023-01-24T01:26:57;101687.88;;;-1.36;74.29
75312;BME280;63906;55.686;37.532;2023-01-24T01:31:57;101667.16;;;-1.56;73.67
75312;BME280;63906;55.686;37.532;2023-01-24T01:36:58;101675.84;;;-1.37;75.09
75312;BME280;63906;55.686;37.532;2023-01-24T01:42:04;101673.13;;;-1.34;75.23
75312;BME280;63906;55.686;37.532;2023-01-24T01:47:28;101603.81;;;-1.85;76.38
75312;BME280;63906;55.686;37.532;2023-01-24T01:52:38;101632.81;;;-1.58;75.30
75312;BME280;63906;55.686;37.532;2023-01-24T01:57:41;101665.25;;;-1.31;75.92
75312;BME280;63906;55.686;37.532;2023-01-24T02:02:48;101652.59;;;-1.37;75.03
75312;BME280;63906;55.686;37.532;2023-01-24T02:07:57;101675.22;;;-1.22;74.39
75312;BME280;63906;55.686;37.532;2023-01-24T02:12:59;101675.41;;;-1.06;73.56
75312;BME280;63906;55.686;37.532;2023-01-24T02:18:00;101676.91;;;-1.21;73.65
75312;BME280;63906;55.686;37.532;2023-01-24T02:24:02;101677.94;;;-1.04;72.95
75312;BME280;63906;55.686;37.532;2023-01-24T02:29:01;101679.28;;;-1.16;73.71
75312;BME280;63906;55.686;37.532;2023-01-24T02:34:02;101662.03;;;-1.36;72.55
75312;BME280;63906;55.686;37.532;2023-01-24T02:44:13;101653.63;;;-1.41;74.13
75312;BME280;63906;55.686;37.532;2023-01-24T02:49:15;101665.91;;;-1.26;74.42
75312;BME280;63906;55.686;37.532;2023-01-24T02:54:15;101657.63;;;-1.34;74.74
75312;BME280;63906;55.686;37.532;2023-01-24T02:59:16;101622.91;;;-1.47;75.35
75312;BME280;63906;55.686;37.532;2023-01-24T03:04:16;101648.88;;;-1.30;75.40
75312;BME280;63906;55.686;37.532;2023-01-24T03:09:17;101650.47;;;-1.27;75.45
75312;BME280;63906;55.686;37.532;2023-01-24T03:14:18;101627.66;;;-1.38;75.38
75312;BME280;63906;55.686;37.532;2023-01-24T03:19:37;101634.13;;;-1.28;75.71
75312;BME280;63906;55.686;37.532;2023-01-24T03:24:57;101631.03;;;-1.36;75.62
75312;BME280;63906;55.686;37.532;2023-01-24T03:30:16;101631.66;;;-1.31;76.07
75312;BME280;63906;55.686;37.532;2023-01-24T03:35:35;101625.34;;;-1.44;74.03
75312;BME280;63906;55.686;37.532;2023-01-24T03:40:36;101590.34;;;-1.51;76.97
75312;BME280;63906;55.686;37.532;2023-01-24T03:45:38;101587.09;;;-1.56;74.92
75312;BME280;63906;55.686;37.532;2023-01-24T03:50:42;101613.22;;;-1.22;76.94
75312;BME280;63906;55.686;37.532;2023-01-24T03:56:01;101612.06;;;-1.35;75.38
75312;BME280;63906;55.686;37.532;2023-01-24T04:01:02;101620.81;;;-1.39;75.34
75312;BME280;63906;55.686;37.532;2023-01-24T04:06:03;101613.72;;;-1.34;76.12
75312;BME280;63906;55.686;37.532;2023-01-24T04:11:04;101612.81;;;-1.53;76.66
75312;BME280;63906;55.686;37.532;2023-01-24T04:16:06;101569.19;;;-2.02;77.10
75312;BME280;63906;55.686;37.532;2023-01-24T04:21:08;101588.03;;;-2.22;77.07
75312;BME280;63906;55.686;37.532;2023-01-24T04:26:10;101588.19;;;-2.48;76.59
75312;BME280;63906;55.686;37.532;2023-01-24T04:31:11;101558.81;;;-2.67;76.72
75312;BME280;63906;55.686;37.532;2023-01-24T04:36:12;101521.94;;;-2.91;77.65
75312;BME280;63906;55.686;37.532;2023-01-24T04:41:13;101594.13;;;-2.46;77.84
75312;BME280;63906;55.686;37.532;2023-01-24T04:46:14;101617.88;;;-2.38;78.14
75312;BME280;63906;55.686;37.532;2023-01-24T04:51:15;101604.16;;;-2.62;78.16
75312;BME280;63906;55.686;37.532;2023-01-24T04:56:15;101542.13;;;-3.03;78.08
75312;BME280;63906;55.686;37.532;2023-01-24T05:01:16;101595.66;;;-2.64;77.70
75312;BME280;63906;55.686;37.532;2023-01-24T05:06:17;101589.53;;;-2.61;77.74
75312;BME280;63906;55.686;37.532;2023-01-24T05:11:18;101566.16;;;-2.79;77.21
75312;BME280;63906;55.686;37.532;2023-01-24T05:16:19;101543.13;;;-2.61;78.67
75312;BME280;63906;55.686;37.532;2023-01-24T05:21:19;101596.19;;;-2.32;77.15
75312;BME280;63906;55.686;37.532;2023-01-24T05:26:22;101579.88;;;-2.33;77.08
75312;BME280;63906;55.686;37.532;2023-01-24T05:31:23;101584.53;;;-2.21;76.72
75312;BME280;63906;55.686;37.532;2023-01-24T05:36:23;101585.88;;;-2.10;77.08
75312;BME280;63906;55.686;37.532;2023-01-24T05:41:24;101562.25;;;-2.22;75.95
75312;BME280;63906;55.686;37.532;2023-01-24T05:46:24;101588.50;;;-1.90;78.77
75312;BME280;63906;55.686;37.532;2023-01-24T05:51:25;101575.59;;;-1.90;78.15
75312;BME280;63906;55.686;37.532;2023-01-24T05:56:26;101566.03;;;-1.88;78.08
75312;BME280;63906;55.686;37.532;2023-01-24T06:01:27;101552.63;;;-1.96;76.14
75312;BME280;63906;55.686;37.532;2023-01-24T06:06:28;101566.66;;;-2.03;75.12
75312;BME280;63906;55.686;37.532;2023-01-24T06:11:29;101572.75;;;-1.84;75.80
75312;BME280;63906;55.686;37.532;2023-01-24T06:16:29;101540.78;;;-2.22;76.36
75312;BME280;63906;55.686;37.532;2023-01-24T06:26:34;101572.91;;;-2.09;76.57
75312;BME280;63906;55.686;37.532;2023-01-24T06:31:59;101580.47;;;-2.04;77.37
75312;BME280;63906;55.686;37.532;2023-01-24T06:42:22;101536.06;;;-2.12;76.83
75312;BME280;63906;55.686;37.532;2023-01-24T06:47:23;101541.94;;;-2.09;75.24
75312;BME280;63906;55.686;37.532;2023-01-24T06:52:25;101580.91;;;-1.73;77.25
75312;BME280;63906;55.686;37.532;2023-01-24T06:57:26;101544.19;;;-1.79;75.76
75312;BME280;63906;55.686;37.532;2023-01-24T07:02:26;101558.00;;;-1.40;76.49
75312;BME280;63906;55.686;37.532;2023-01-24T07:07:27;101564.25;;;-0.86;74.20
75312;BME280;63906;55.686;37.532;2023-01-24T07:12:27;101559.91;;;-0.85;75.53
75312;BME280;63906;55.686;37.532;2023-01-24T07:17:28;101560.31;;;-0.57;73.56
75312;BME280;63906;55.686;37.532;2023-01-24T07:22:29;101570.09;;;-0.44;74.41
75312;BME280;63906;55.686;37.532;2023-01-24T07:27:30;101559.63;;;-0.41;71.71
75312;BME280;63906;55.686;37.532;2023-01-24T07:32:30;101562.28;;;-0.24;74.15
75312;BME280;63906;55.686;37.532;2023-01-24T07:37:31;101569.28;;;-0.45;73.94
75312;BME280;63906;55.686;37.532;2023-01-24T07:42:32;101572.78;;;-0.65;73.06
75312;BME280;63906;55.686;37.532;2023-01-24T07:47:32;101569.44;;;-0.67;74.63
75312;BME280;63906;55.686;37.532;2023-01-24T07:52:33;101570.94;;;-0.63;73.01
75312;BME280;63906;55.686;37.532;2023-01-24T07:57:34;101573.97;;;-0.72;73.61
75312;BME280;63906;55.686;37.532;2023-01-24T08:02:34;101569.44;;;-0.86;74.23
75312;BME280;63906;55.686;37.532;2023-01-24T08:07:35;101582.72;;;-0.56;72.85
75312;BME280;63906;55.686;37.532;2023-01-24T08:12:36;101570.09;;;-0.63;72.76
75312;BME280;63906;55.686;37.532;2023-01-24T08:17:37;101578.03;;;-0.47;73.59
75312;BME280;63906;55.686;37.532;2023-01-24T08:22:39;101550.81;;;-0.56;72.58
75312;BME280;63906;55.686;37.532;2023-01-24T08:27:41;101564.16;;;-0.46;73.64
75312;BME280;63906;55.686;37.532;2023-01-24T08:32:42;101551.09;;;-0.43;72.44
75312;BME280;63906;55.686;37.532;2023-01-24T08:37:43;101527.63;;;-0.58;73.85
75312;BME280;63906;55.686;37.532;2023-01-24T08:42:44;101559.63;;;-0.41;71.50
75312;BME280;63906;55.686;37.532;2023-01-24T08:47:50;101524.66;;;-0.50;71.45
75312;BME280;63906;55.686;37.532;2023-01-24T08:52:54;101536.47;;;-0.08;73.20
75312;BME280;63906;55.686;37.532;2023-01-24T08:58:02;101529.44;;;0.13;72.65
75312;BME280;63906;55.686;37.532;2023-01-24T09:03:04;101520.28;;;0.23;71.12
75312;BME280;63906;55.686;37.532;2023-01-24T09:08:05;101506.25;;;0.27;69.57
75312;BME280;63906;55.686;37.532;2023-01-24T09:13:06;101496.22;;;0.21;70.33
75312;BME280;63906;55.686;37.532;2023-01-24T09:18:06;101501.09;;;0.27;70.41
75312;BME280;63906;55.686;37.532;2023-01-24T09:23:11;101509.47;;;0.32;68.99
75312;BME280;63906;55.686;37.532;2023-01-24T09:28:14;101499.69;;;0.37;71.92
75312;BME280;63906;55.686;37.532;2023-01-24T09:33:16;101452.06;;;0.07;71.85
75312;BME280;63906;55.686;37.532;2023-01-24T09:38:17;101500.59;;;0.36;70.03
75312;BME280;63906;55.686;37.532;2023-01-24T09:43:45;101497.84;;;0.57;71.62
75312;BME280;63906;55.686;37.532;2023-01-24T09:48:54;101514.25;;;0.73;70.92
75312;BME280;63906;55.686;37.532;2023-01-24T09:54:01;101502.78;;;0.61;69.24
75312;BME280;63906;55.686;37.532;2023-01-24T09:59:13;101478.00;;;0.40;69.77
75312;BME280;63906;55.686;37.532;2023-01-24T10:09:24;101462.59;;;0.70;69.24
75312;BME280;63906;55.686;37.532;2023-01-24T10:14:58;101473.59;;;0.58;70.53
75312;BME280;63906;55.686;37.532;2023-01-24T10:20:17;101463.41;;;0.37;69.45
75312;BME280;63906;55.686;37.532;2023-01-24T10:25:41;101447.19;;;0.67;69.04
75312;BME280;63906;55.686;37.532;2023-01-24T10:31:02;101407.84;;;0.27;71.34
75312;BME280;63906;55.686;37.532;2023-01-24T10:36:10;101426.13;;;0.57;70.46
75312;BME280;63906;55.686;37.532;2023-01-24T10:41:14;101411.16;;;0.46;70.16
75312;BME280;63906;55.686;37.532;2023-01-24T10:51:27;101404.56;;;0.72;71.71
75312;BME280;63906;55.686;37.532;2023-01-24T10:56:29;101408.34;;;0.83;70.93
75312;BME280;63906;55.686;37.532;2023-01-24T11:01:42;101402.25;;;0.84;71.02
75312;BME280;63906;55.686;37.532;2023-01-24T11:06:46;101383.25;;;0.83;67.92
75312;BME280;63906;55.686;37.532;2023-01-24T11:11:50;101393.53;;;0.85;69.24
75312;BME280;63906;55.686;37.532;2023-01-24T11:16:57;101358.59;;;0.76;70.36
75312;BME280;63906;55.686;37.532;2023-01-24T11:22:00;101352.59;;;0.75;68.74
75312;BME280;63906;55.686;37.532;2023-01-24T11:27:14;101348.38;;;0.73;69.35
75312;BME280;63906;55.686;37.532;2023-01-24T11:33:20;101373.94;;;1.11;67.88
75312;BME280;63906;55.686;37.532;2023-01-24T11:38:35;101340.63;;;0.73;67.41
75312;BME280;63906;55.686;37.532;2023-01-24T11:44:12;101341.84;;;0.97;70.39
75312;BME280;63906;55.686;37.532;2023-01-24T11:55:03;101322.28;;;0.92;66.38
75312;BME280;63906;55.686;37.532;2023-01-24T12:05:44;101323.59;;;1.15;67.72
75312;BME280;63906;55.686;37.532;2023-01-24T12:11:02;101314.66;;;1.04;69.86
75312;BME280;63906;55.686;37.532;2023-01-24T12:16:31;101318.91;;;1.05;69.15
75312;BME280;63906;55.686;37.532;2023-01-24T12:21:37;101307.47;;;1.24;67.99
75312;BME280;63906;55.686;37.532;2023-01-24T12:26:45;101303.69;;;1.15;68.13
75312;BME280;63906;55.686;37.532;2023-01-24T12:37:35;101304.13;;;1.07;67.29
75312;BME280;63906;55.686;37.532;2023-01-24T12:58:54;101288.53;;;0.62;69.58
75312;BME280;63906;55.686;37.532;2023-01-24T13:14:32;101297.56;;;0.70;69.79
75312;BME280;63906;55.686;37.532;2023-01-24T13:30:46;101275.88;;;0.57;69.29
75312;BME280;63906;55.686;37.532;2023-01-24T13:35:51;101268.09;;;0.41;70.23
75312;BME280;63906;55.686;37.532;2023-01-24T13:51:47;101269.53;;;0.31;69.83
75312;BME280;63906;55.686;37.532;2023-01-24T14:03:12;101258.91;;;0.51;69.44
75312;BME280;63906;55.686;37.532;2023-01-24T14:07:46;101229.97;;;0.12;71.34
75312;BME280;63906;55.686;37.532;2023-01-24T14:12:54;101247.22;;;0.13;71.72
75312;BME280;63906;55.686;37.532;2023-01-24T14:17:55;101235.50;;;0.06;70.76
75312;BME280;63906;55.686;37.532;2023-01-24T14:22:58;101212.44;;;0.17;70.32
75312;BME280;63906;55.686;37.532;2023-01-24T14:33:42;101202.69;;;-0.10;71.90
75312;BME280;63906;55.686;37.532;2023-01-24T14:38:45;101227.66;;;0.07;71.54
75312;BME280;63906;55.686;37.532;2023-01-24T14:43:46;101184.81;;;0.02;70.99
75312;BME280;63906;55.686;37.532;2023-01-24T14:48:47;101203.84;;;0.16;70.23
75312;BME280;63906;55.686;37.532;2023-01-24T14:53:53;101209.22;;;0.13;70.87
75312;BME280;63906;55.686;37.532;2023-01-24T14:59:09;101198.69;;;0.01;70.50
75312;BME280;63906;55.686;37.532;2023-01-24T15:04:43;101214.88;;;0.20;71.36
75312;BME280;63906;55.686;37.532;2023-01-24T15:09:44;101201.16;;;0.18;71.25
75312;BME280;63906;55.686;37.532;2023-01-24T15:14:47;101169.44;;;-0.02;71.25
75312;BME280;63906;55.686;37.532;2023-01-24T15:19:54;101195.34;;;0.14;70.83
75312;BME280;63906;55.686;37.532;2023-01-24T15:24:58;101219.72;;;0.26;71.39
75312;BME280;63906;55.686;37.532;2023-01-24T15:30:21;101209.72;;;0.20;71.79
75312;BME280;63906;55.686;37.532;2023-01-24T15:40:26;101202.53;;;0.25;71.07
75312;BME280;63906;55.686;37.532;2023-01-24T15:45:27;101161.44;;;0.19;70.49
75312;BME280;63906;55.686;37.532;2023-01-24T15:50:28;101183.47;;;0.26;71.21
75312;BME280;63906;55.686;37.532;2023-01-24T15:56:13;101106.69;;;-0.21;70.90
75312;BME280;63906;55.686;37.532;2023-01-24T16:01:17;101185.53;;;0.35;71.25
75312;BME280;63906;55.686;37.532;2023-01-24T16:06:18;101189.25;;;0.31;71.24
75312;BME280;63906;55.686;37.532;2023-01-24T16:11:18;101171.28;;;0.28;70.11
75312;BME280;63906;55.686;37.532;2023-01-24T16:16:19;101148.66;;;0.16;69.56
75312;BME280;63906;55.686;37.532;2023-01-24T16:21:21;101181.47;;;0.31;70.40
75312;BME280;63906;55.686;37.532;2023-01-24T16:26:25;101160.91;;;0.12;71.09
75312;BME280;63906;55.686;37.532;2023-01-24T16:31:26;101168.09;;;0.23;70.25
75312;BME280;63906;55.686;37.532;2023-01-24T16:36:27;101166.91;;;0.29;70.68
75312;BME280;63906;55.686;37.532;2023-01-24T16:41:29;101172.00;;;0.30;70.53
75312;BME280;63906;55.686;37.532;2023-01-24T16:46:29;101174.44;;;0.33;70.79
75312;BME280;63906;55.686;37.532;2023-01-24T16:51:30;101165.16;;;0.29;70.29
75312;BME280;63906;55.686;37.532;2023-01-24T16:56:31;101153.56;;;0.20;70.74
75312;BME280;63906;55.686;37.532;2023-01-24T17:01:31;101169.59;;;0.27;71.43
75312;BME280;63906;55.686;37.532;2023-01-24T17:06:32;101150.41;;;0.31;71.62
75312;BME280;63906;55.686;37.532;2023-01-24T17:11:32;101151.03;;;0.35;70.62
75312;BME280;63906;55.686;37.532;2023-01-24T17:16:33;101159.56;;;0.37;70.32
75312;BME280;63906;55.686;37.532;2023-01-24T17:21:33;101165.75;;;0.34;70.72
75312;BME280;63906;55.686;37.532;2023-01-24T17:26:34;101174.34;;;0.35;70.37
75312;BME280;63906;55.686;37.532;2023-01-24T17:31:35;101144.28;;;0.32;69.64
75312;BME280;63906;55.686;37.532;2023-01-24T17:36:35;101119.69;;;0.09;70.49
75312;BME280;63906;55.686;37.532;2023-01-24T17:41:38;101142.53;;;0.17;71.07
75312;BME280;63906;55.686;37.532;2023-01-24T17:46:39;101138.63;;;0.25;71.00
75312;BME280;63906;55.686;37.532;2023-01-24T17:51:39;101157.06;;;0.35;70.91
75312;BME280;63906;55.686;37.532;2023-01-24T17:56:42;101143.03;;;0.39;70.69
75312;BME280;63906;55.686;37.532;2023-01-24T18:01:43;101119.19;;;0.03;72.11
75312;BME280;63906;55.686;37.532;2023-01-24T18:06:44;101124.16;;;0.21;71.39
75312;BME280;63906;55.686;37.532;2023-01-24T18:11:44;101114.25;;;0.14;71.81
75312;BME280;63906;55.686;37.532;2023-01-24T18:16:45;101128.41;;;0.38;71.71
75312;BME280;63906;55.686;37.532;2023-01-24T18:21:45;101126.50;;;0.26;71.97
75312;BME280;63906;55.686;37.532;2023-01-24T18:26:47;101133.16;;;0.30;71.76
75312;BME280;63906;55.686;37.532;2023-01-24T18:31:47;101106.81;;;0.08;71.99
75312;BME280;63906;55.686;37.532;2023-01-24T18:36:48;101115.69;;;0.04;73.51
75312;BME280;63906;55.686;37.532;2023-01-24T18:41:49;101105.78;;;0.26;72.10
75312;BME280;63906;55.686;37.532;2023-01-24T18:46:49;101108.50;;;0.09;72.24
75312;BME280;63906;55.686;37.532;2023-01-24T18:51:50;101117.44;;;0.19;73.11
75312;BME280;63906;55.686;37.532;2023-01-24T18:56:52;101111.16;;;0.37;71.74
75312;BME280;63906;55.686;37.532;2023-01-24T19:01:58;101092.25;;;0.21;72.92
75312;BME280;63906;55.686;37.532;2023-01-24T19:06:58;101118.19;;;0.35;72.92
75312;BME280;63906;55.686;37.532;2023-01-24T19:12:02;101100.34;;;0.31;72.29
75312;BME280;63906;55.686;37.532;2023-01-24T19:17:02;101082.41;;;0.12;72.65
75312;BME280;63906;55.686;37.532;2023-01-24T19:22:03;101096.91;;;0.30;72.60
75312;BME280;63906;55.686;37.532;2023-01-24T19:27:08;101102.31;;;0.41;71.81
75312;BME280;63906;55.686;37.532;2023-01-24T19:32:09;101120.44;;;0.41;71.70
75312;BME280;63906;55.686;37.532;2023-01-24T19:37:09;101103.91;;;0.44;71.34
75312;BME280;63906;55.686;37.532;2023-01-24T19:42:10;101108.41;;;0.40;71.94
75312;BME280;63906;55.686;37.532;2023-01-24T19:47:11;101098.31;;;0.36;71.61
75312;BME280;63906;55.686;37.532;2023-01-24T19:52:11;101090.84;;;0.31;71.29
75312;BME280;63906;55.686;37.532;2023-01-24T19:57:12;101066.09;;;-0.05;72.86
75312;BME280;63906;55.686;37.532;2023-01-24T20:02:13;101093.94;;;0.22;73.40
75312;BME280;63906;55.686;37.532;2023-01-24T20:07:14;101063.88;;;0.19;72.39
75312;BME280;63906;55.686;37.532;2023-01-24T20:12:16;101088.97;;;0.33;71.94
75312;BME280;63906;55.686;37.532;2023-01-24T20:17:17;101070.88;;;0.17;72.11
75312;BME280;63906;55.686;37.532;2023-01-24T20:22:17;101049.34;;;0.17;72.03
75312;BME280;63906;55.686;37.532;2023-01-24T20:27:18;101076.53;;;0.24;72.99
75312;BME280;63906;55.686;37.532;2023-01-24T20:32:19;101059.19;;;0.26;71.84
75312;BME280;63906;55.686;37.532;2023-01-24T20:37:19;101061.78;;;0.26;72.53
75312;BME280;63906;55.686;37.532;2023-01-24T20:42:20;101055.81;;;0.24;72.79
75312;BME280;63906;55.686;37.532;2023-01-24T20:47:20;101032.56;;;-0.06;72.61
75312;BME280;63906;55.686;37.532;2023-01-24T20:52:21;101054.00;;;0.26;73.36
75312;BME280;63906;55.686;37.532;2023-01-24T20:57:21;101047.81;;;0.29;72.16
75312;BME280;63906;55.686;37.532;2023-01-24T21:02:23;101058.81;;;0.32;71.75
75312;BME280;63906;55.686;37.532;2023-01-24T21:07:24;101047.53;;;0.03;70.98
75312;BME280;63906;55.686;37.532;2023-01-24T21:12:25;101053.69;;;0.16;72.01
75312;BME280;63906;55.686;37.532;2023-01-24T21:17:25;101067.88;;;0.25;71.76
75312;BME280;63906;55.686;37.532;2023-01-24T21:22:30;101065.91;;;0.14;71.77
75312;BME280;63906;55.686;37.532;2023-01-24T21:27:31;101080.06;;;0.23;71.65
75312;BME280;63906;55.686;37.532;2023-01-24T21:32:31;101073.34;;;0.05;72.43
75312;BME280;63906;55.686;37.532;2023-01-24T21:37:32;101073.44;;;0.03;72.59
75312;BME280;63906;55.686;37.532;2023-01-24T21:42:32;101063.66;;;0.08;72.37
75312;BME280;63906;55.686;37.532;2023-01-24T21:47:33;101083.00;;;0.17;72.31
75312;BME280;63906;55.686;37.532;2023-01-24T21:52:33;101059.81;;;-0.01;73.54
75312;BME280;63906;55.686;37.532;2023-01-24T21:57:34;101055.75;;;-0.05;73.36
75312;BME280;63906;55.686;37.532;2023-01-24T22:02:53;101056.13;;;0.04;73.67
75312;BME280;63906;55.686;37.532;2023-01-24T22:08:16;101057.34;;;0.12;73.72
75312;BME280;63906;55.686;37.532;2023-01-24T22:13:17;101055.69;;;0.11;73.38
75312;BME280;63906;55.686;37.532;2023-01-24T22:18:18;101051.19;;;0.15;73.39
75312;BME280;63906;55.686;37.532;2023-01-24T22:23:28;101056.19;;;0.18;73.00
75312;BME280;63906;55.686;37.532;2023-01-24T22:28:35;101031.78;;;-0.08;73.84
75312;BME280;63906;55.686;37.532;2023-01-24T22:33:36;101045.28;;;0.13;73.34
75312;BME280;63906;55.686;37.532;2023-01-24T22:38:36;101038.94;;;0.03;73.94
75312;BME280;63906;55.686;37.532;2023-01-24T22:43:37;101036.16;;;0.06;74.20
75312;BME280;63906;55.686;37.532;2023-01-24T22:48:37;101025.06;;;0.04;73.75
75312;BME280;63906;55.686;37.532;2023-01-24T22:53:38;100988.81;;;-0.11;74.26
75312;BME280;63906;55.686;37.532;2023-01-24T22:58:38;101018.97;;;0.05;74.29
75312;BME280;63906;55.686;37.532;2023-01-24T23:03:39;101039.75;;;0.19;74.09
75312;BME280;63906;55.686;37.532;2023-01-24T23:08:40;101033.06;;;0.15;73.58
75312;BME280;63906;55.686;37.532;2023-01-24T23:13:41;101047.53;;;0.19;73.83
75312;BME280;63906;55.686;37.532;2023-01-24T23:19:07;101061.84;;;0.24;73.43
75312;BME280;63906;55.686;37.532;2023-01-24T23:24:44;101053.88;;;0.13;73.69
75312;BME280;63906;55.686;37.532;2023-01-24T23:34:56;101068.28;;;0.17;73.04
75312;BME280;63906;55.686;37.532;2023-01-24T23:39:58;101062.47;;;0.14;72.74
75312;BME280;63906;55.686;37.532;2023-01-24T23:44:58;101055.69;;;0.11;73.23
75312;BME280;63906;55.686;37.532;2023-01-24T23:49:59;101047.31;;;0.22;72.63
75312;BME280;63906;55.686;37.532;2023-01-24T23:55:00;101049.81;;;0.23;71.29
